Track Ехтанигов Темир

Time Latitude Longitude Accuracy (66% radius in meters) Altitude (meters) Speed (km/hour) Bearing (degrees) Battery (%) GPS flag
07:09:19 57.203970 60.118246 0 0 0 0 1 delete
07:09:18 57.203969 60.118244 0 0 0 0 1 delete
07:09:17 57.203970 60.118243 0 0 0 0 1 delete
07:09:16 57.203972 60.118243 0 0 0 0 1 delete
07:09:15 57.203974 60.118242 0 0 0 0 1 delete
07:09:14 57.203974 60.118240 0 0 0 0 1 delete
07:09:13 57.203975 60.118239 0 0 0 0 1 delete
07:09:12 57.203975 60.118239 0 0 0 0 1 delete
07:09:11 57.203975 60.118238 0 0 0 0 1 delete
07:09:10 57.203974 60.118238 0 0 0 0 1 delete
07:09:09 57.203973 60.118238 0 0 0 0 1 delete
07:09:08 57.203973 60.118238 0 0 0 0 1 delete
07:09:07 57.203973 60.118238 0 0 0 0 1 delete
07:09:06 57.203973 60.118238 0 0 0 0 1 delete
07:09:05 57.203973 60.118238 0 0 0 0 1 delete
07:09:04 57.203973 60.118237 0 0 0 0 1 delete
07:09:03 57.203972 60.118237 0 0 0 0 1 delete
07:09:02 57.203972 60.118237 0 0 0 0 1 delete
07:09:01 57.203971 60.118237 0 0 0 0 1 delete
07:09:00 57.203970 60.118238 0 0 0 0 1 delete
07:08:59 57.203970 60.118238 0 0 0 0 1 delete
07:08:58 57.203971 60.118239 0 0 0 0 1 delete
07:08:57 57.203972 60.118240 0 0 0 0 1 delete
07:08:56 57.203974 60.118242 0 0 0 0 1 delete
07:08:55 57.203975 60.118243 0 0 0 0 1 delete
07:08:54 57.203976 60.118244 0 0 0 0 1 delete
07:08:53 57.203977 60.118244 0 0 0 0 1 delete
07:08:52 57.203978 60.118244 0 0 0 0 1 delete
07:08:51 57.203979 60.118244 0 0 0 0 1 delete
07:08:50 57.203981 60.118244 0 0 0 0 1 delete
07:08:49 57.203982 60.118243 0 0 0 0 1 delete
07:08:48 57.203984 60.118243 0 0 0 0 1 delete
07:08:47 57.203987 60.118239 0 0 0 0 1 delete
07:08:46 57.203991 60.118235 0 0 0 0 1 delete
07:08:45 57.203992 60.118232 0 0 0 0 1 delete
07:08:44 57.203994 60.118231 0 0 0 0 1 delete
07:08:43 57.203994 60.118230 0 0 0 0 1 delete
07:08:42 57.203996 60.118227 0 0 0 0 1 delete
07:08:41 57.203997 60.118224 0 0 0 0 1 delete
07:08:40 57.203998 60.118222 0 0 0 0 1 delete
07:08:39 57.203999 60.118219 0 0 0 0 1 delete
07:08:38 57.204000 60.118214 0 0 0 0 1 delete
07:08:37 57.204003 60.118205 0 0 0 0 1 delete
07:08:36 57.204007 60.118195 0 0 0 0 1 delete
07:08:35 57.204011 60.118181 0 0 0 0 1 delete
07:08:34 57.204015 60.118166 0 0 0 0 1 delete
07:08:33 57.204018 60.118158 0 0 0 0 1 delete
07:08:32 57.204023 60.118149 0 0 0 0 1 delete
07:08:31 57.204039 60.118125 0 0 0 0 1 delete
07:08:30 57.204066 60.118082 0 0 0 0 1 delete